createdAt,value
2019-01-19T00:02:59.362Z,36.77
2019-01-19T00:06:05.814Z,38.73
2019-01-19T00:08:53.979Z,39.23
2019-01-19T00:12:05.720Z,35.53
2019-01-19T00:14:47.539Z,39.40
2019-01-19T00:17:54.798Z,36.33
2019-01-19T00:20:47.198Z,46.57
2019-01-19T00:24:01.907Z,42.93
2019-01-19T00:26:59.073Z,47.00
2019-01-19T00:30:05.529Z,39.13
2019-01-19T00:32:52.176Z,37.93
2019-01-19T00:35:39.317Z,35.70
2019-01-19T00:38:39.370Z,40.80
2019-01-19T00:41:36.801Z,42.30
2019-01-19T00:44:30.502Z,40.07
2019-01-19T00:47:07.770Z,40.70
2019-01-19T00:49:44.843Z,49.17
2019-01-19T00:52:32.229Z,40.43
2019-01-19T00:55:47.550Z,43.37
2019-01-19T00:58:43.560Z,46.23
2019-01-19T01:01:23.566Z,41.63
2019-01-19T01:04:27.921Z,43.13
2019-01-19T01:07:20.653Z,36.50
2019-01-19T01:10:01.797Z,43.43
2019-01-19T01:12:52.844Z,36.73
2019-01-19T01:16:10.904Z,37.30
2019-01-19T01:19:16.988Z,33.97
2019-01-19T01:22:19.521Z,39.90
2019-01-19T01:25:06.451Z,34.90
2019-01-19T01:27:45.870Z,36.87
2019-01-19T01:30:48.226Z,43.50
2019-01-19T01:33:50.386Z,39.63
2019-01-19T01:37:02.466Z,39.57
2019-01-19T01:40:42.242Z,39.40
2019-01-19T01:43:17.283Z,35.53
2019-01-19T01:46:35.317Z,37.57
2019-01-19T01:49:34.781Z,33.40
2019-01-19T01:52:32.444Z,38.23
2019-01-19T01:55:24.946Z,38.17
2019-01-19T01:58:17.995Z,39.50
2019-01-19T02:01:22.502Z,37.10
2019-01-19T02:04:08.541Z,36.23
2019-01-19T02:07:16.922Z,36.13
2019-01-19T02:10:26.051Z,41.07
2019-01-19T02:13:26.220Z,33.00
2019-01-19T02:16:50.622Z,37.53
2019-01-19T02:19:39.716Z,36.63
2019-01-19T02:22:48.304Z,35.63
2019-01-19T02:25:48.934Z,36.67
2019-01-19T02:29:14.050Z,36.13
2019-01-19T02:32:05.270Z,39.00
2019-01-19T02:34:52.194Z,38.37
2019-01-19T02:37:51.567Z,40.00
2019-01-19T02:40:59.067Z,35.17
2019-01-19T02:44:06.609Z,32.87
2019-01-19T02:47:21.127Z,31.40
2019-01-19T02:50:36.907Z,35.53
2019-01-19T02:53:41.929Z,34.53
2019-01-19T02:56:26.674Z,30.63
2019-01-19T02:59:28.603Z,29.43
2019-01-19T03:02:56.180Z,32.53
2019-01-19T03:05:37.298Z,25.70
2019-01-19T03:08:55.160Z,27.17
2019-01-19T03:12:12.814Z,27.57
2019-01-19T03:15:02.648Z,34.10
2019-01-19T03:18:05.002Z,33.33
2019-01-19T03:20:54.105Z,33.60
2019-01-19T03:24:21.754Z,27.27
2019-01-19T03:27:13.042Z,29.73
2019-01-19T03:30:13.935Z,26.87
2019-01-19T03:33:33.761Z,30.30
2019-01-19T03:36:55.315Z,33.93
2019-01-19T03:39:35.414Z,26.50
2019-01-19T03:42:28.477Z,24.43
2019-01-19T03:45:27.394Z,28.20
2019-01-19T03:48:16.813Z,25.70
2019-01-19T03:51:14.255Z,23.67
2019-01-19T03:54:15.477Z,25.03
2019-01-19T03:57:08.524Z,22.07
2019-01-19T04:00:31.508Z,25.00
2019-01-19T04:03:26.727Z,22.73
2019-01-19T04:06:44.664Z,27.23
2019-01-19T04:10:18.567Z,30.93
2019-01-19T04:13:20.589Z,22.57
2019-01-19T04:16:46.518Z,28.13
2019-01-19T04:19:38.014Z,29.07
2019-01-19T04:22:41.028Z,25.70
2019-01-19T04:25:36.720Z,29.53
2019-01-19T04:28:05.592Z,25.70
2019-01-19T04:30:35.495Z,26.23
2019-01-19T04:33:02.872Z,26.63
2019-01-19T04:35:31.235Z,26.17
2019-01-19T04:37:59.003Z,31.97
2019-01-19T04:40:26.770Z,27.20
2019-01-19T04:42:55.339Z,27.80
2019-01-19T04:45:23.190Z,26.23
2019-01-19T04:47:51.086Z,28.03
2019-01-19T04:50:19.206Z,28.13
2019-01-19T04:52:47.259Z,27.07
2019-01-19T04:55:14.750Z,29.27
2019-01-19T04:57:42.215Z,23.47
2019-01-19T05:00:17.792Z,24.90
2019-01-19T05:02:45.614Z,24.17
2019-01-19T05:05:13.669Z,23.50
2019-01-19T05:07:41.924Z,26.83
2019-01-19T05:10:09.997Z,24.67
2019-01-19T05:12:37.912Z,27.30
2019-01-19T05:15:09.046Z,24.77
2019-01-19T05:17:37.309Z,24.70
2019-01-19T05:20:06.210Z,35.87
2019-01-19T05:22:34.002Z,28.10
2019-01-19T05:25:01.899Z,25.73
2019-01-19T05:27:30.837Z,26.00
2019-01-19T05:29:59.034Z,23.63
2019-01-19T05:32:27.118Z,21.97
2019-01-19T05:34:55.790Z,26.53
2019-01-19T05:37:25.655Z,29.20
2019-01-19T05:39:53.887Z,27.30
2019-01-19T05:42:21.968Z,29.13
2019-01-19T05:44:50.252Z,31.40
2019-01-19T05:47:18.745Z,27.33
2019-01-19T05:49:48.059Z,27.67
2019-01-19T05:52:15.916Z,26.77
2019-01-19T05:54:44.510Z,26.17
2019-01-19T05:57:13.311Z,22.57
2019-01-19T05:59:41.103Z,24.50
2019-01-19T06:02:08.901Z,27.60
2019-01-19T06:04:38.462Z,23.80
2019-01-19T06:07:06.040Z,27.20
2019-01-19T06:09:33.993Z,29.33
2019-01-19T06:12:02.895Z,28.73
2019-01-19T06:14:30.729Z,24.00
2019-01-19T06:17:00.433Z,27.40
2019-01-19T06:19:28.968Z,31.53
2019-01-19T06:21:59.520Z,28.97
2019-01-19T06:24:27.078Z,27.40
2019-01-19T06:26:54.918Z,27.13
2019-01-19T06:29:22.749Z,32.63
2019-01-19T06:31:51.602Z,28.03
2019-01-19T06:34:19.990Z,28.70
2019-01-19T06:36:54.852Z,28.27
2019-01-19T06:39:19.575Z,23.17
2019-01-19T06:41:47.276Z,23.73
2019-01-19T06:44:15.048Z,25.77
2019-01-19T06:46:42.920Z,23.83
2019-01-19T06:49:11.007Z,24.03
2019-01-19T06:51:38.780Z,27.93
2019-01-19T06:54:07.332Z,23.70
2019-01-19T06:56:35.651Z,22.17
2019-01-19T06:59:23.269Z,21.00
2019-01-19T07:01:51.348Z,29.03
2019-01-19T07:04:19.133Z,29.33
2019-01-19T07:06:46.991Z,22.67
2019-01-19T07:09:14.774Z,25.57
2019-01-19T07:11:43.486Z,27.50
2019-01-19T07:14:10.991Z,24.63
2019-01-19T07:16:38.754Z,24.97
2019-01-19T07:19:06.817Z,22.80
2019-01-19T07:21:37.403Z,25.33
2019-01-19T07:24:05.171Z,21.90
2019-01-19T07:26:33.295Z,22.90
2019-01-19T07:29:01.464Z,22.57
2019-01-19T07:31:30.860Z,18.97
2019-01-19T07:34:05.045Z,19.00
2019-01-19T07:36:32.651Z,17.93
2019-01-19T07:39:01.705Z,23.07
2019-01-19T07:41:30.259Z,19.80
2019-01-19T07:43:57.811Z,21.03
2019-01-19T07:46:25.936Z,17.87
2019-01-19T07:48:53.451Z,26.83
2019-01-19T07:51:21.310Z,23.93
2019-01-19T07:53:49.335Z,20.30
2019-01-19T07:56:17.546Z,27.13
2019-01-19T07:58:45.809Z,23.17
2019-01-19T08:01:13.727Z,28.77
2019-01-19T08:03:41.181Z,25.70
2019-01-19T08:06:09.182Z,25.10
2019-01-19T08:08:36.776Z,31.90
2019-01-19T08:11:04.655Z,24.17
2019-01-19T08:13:32.258Z,31.33
2019-01-19T08:16:19.461Z,29.00
2019-01-19T08:18:47.058Z,27.00
2019-01-19T08:21:15.581Z,22.77
2019-01-19T08:23:49.780Z,30.50
2019-01-19T08:26:26.714Z,26.30
2019-01-19T08:28:54.721Z,23.80
2019-01-19T08:31:42.119Z,26.47
2019-01-19T08:34:10.356Z,27.83
2019-01-19T08:36:37.908Z,26.20
2019-01-19T08:39:08.192Z,24.93
2019-01-19T08:41:35.764Z,22.33
2019-01-19T08:44:04.817Z,21.50
2019-01-19T08:46:32.576Z,26.67
2019-01-19T08:49:00.081Z,25.30
2019-01-19T08:51:27.588Z,24.57
2019-01-19T08:53:55.433Z,29.43
2019-01-19T08:56:22.923Z,29.97
2019-01-19T08:58:52.135Z,24.30
2019-01-19T09:01:19.583Z,27.13
2019-01-19T09:03:47.024Z,32.00
2019-01-19T09:06:14.811Z,26.00
2019-01-19T09:08:42.710Z,28.27
2019-01-19T09:11:10.235Z,25.07
2019-01-19T09:13:38.296Z,25.43
2019-01-19T09:16:09.896Z,24.40
2019-01-19T09:18:37.897Z,24.27
2019-01-19T09:21:06.278Z,29.23
2019-01-19T09:23:50.304Z,29.43
2019-01-19T09:26:18.171Z,23.60
2019-01-19T09:28:45.746Z,23.43
2019-01-19T09:31:14.028Z,23.97
2019-01-19T09:33:41.577Z,20.67
2019-01-19T09:36:09.469Z,23.13
2019-01-19T09:38:38.640Z,21.37
2019-01-19T09:41:06.477Z,20.13
2019-01-19T09:43:34.798Z,22.87
2019-01-19T09:46:02.588Z,23.07
2019-01-19T09:48:30.862Z,23.73
2019-01-19T09:51:00.538Z,20.30
2019-01-19T09:53:28.128Z,19.17
2019-01-19T09:55:55.827Z,21.77
2019-01-19T09:58:23.697Z,19.80
2019-01-19T10:00:51.500Z,20.77
2019-01-19T10:03:19.399Z,16.97
2019-01-19T10:05:47.265Z,21.47
2019-01-19T10:08:14.954Z,20.33
2019-01-19T10:10:43.427Z,21.80
2019-01-19T10:13:11.619Z,20.93
2019-01-19T10:15:40.499Z,19.23
2019-01-19T10:18:08.764Z,18.40
2019-01-19T10:20:37.294Z,15.23
2019-01-19T10:23:04.868Z,17.70
2019-01-19T10:25:34.959Z,15.03
2019-01-19T10:28:02.735Z,13.33
2019-01-19T10:30:36.177Z,15.70
2019-01-19T10:33:05.213Z,15.03
2019-01-19T10:35:33.502Z,15.77
2019-01-19T10:38:02.160Z,18.63
2019-01-19T10:40:29.770Z,14.07
2019-01-19T10:42:57.645Z,13.27
2019-01-19T10:45:25.535Z,10.07
2019-01-19T10:47:55.437Z,14.10
2019-01-19T10:50:23.026Z,11.13
2019-01-19T10:52:51.128Z,16.83
2019-01-19T10:55:21.156Z,11.27
2019-01-19T10:57:48.758Z,14.57
2019-01-19T11:00:36.171Z,16.00
2019-01-19T11:03:05.112Z,13.60
2019-01-19T11:05:32.771Z,10.93
2019-01-19T11:08:04.005Z,15.43
2019-01-19T11:10:31.268Z,9.37
2019-01-19T11:13:01.958Z,11.23
2019-01-19T11:15:29.967Z,9.77
2019-01-19T11:17:58.199Z,11.53
2019-01-19T11:20:27.810Z,10.87
2019-01-19T11:22:59.789Z,10.20
2019-01-19T11:25:27.838Z,10.47
2019-01-19T11:27:55.578Z,12.13
2019-01-19T11:30:25.629Z,10.03
2019-01-19T11:32:54.097Z,11.40
2019-01-19T11:35:22.105Z,12.70
2019-01-19T11:37:50.531Z,13.10
2019-01-19T11:40:20.931Z,9.10
2019-01-19T11:42:48.679Z,14.53
2019-01-19T11:45:18.958Z,11.10
2019-01-19T11:47:46.733Z,10.27
2019-01-19T11:50:16.371Z,13.10
2019-01-19T11:52:44.458Z,9.73
2019-01-19T11:55:14.558Z,9.30
2019-01-19T11:57:43.077Z,7.23
2019-01-19T12:00:16.535Z,8.87
2019-01-19T12:02:44.415Z,8.60
2019-01-19T12:05:14.708Z,8.00
2019-01-19T12:07:43.369Z,12.67
2019-01-19T12:10:14.352Z,9.50
2019-01-19T12:12:43.555Z,8.43
2019-01-19T12:15:11.439Z,9.90
2019-01-19T12:17:39.610Z,8.83
2019-01-19T12:20:12.313Z,7.93
2019-01-19T12:22:40.210Z,6.97
2019-01-19T12:25:10.181Z,7.70
2019-01-19T12:27:38.877Z,9.23
2019-01-19T12:30:10.101Z,8.30
2019-01-19T12:32:40.730Z,7.63
2019-01-19T12:35:08.866Z,8.07
2019-01-19T12:37:37.342Z,8.57
2019-01-19T12:40:06.468Z,7.17
2019-01-19T12:42:35.095Z,7.63
2019-01-19T12:45:05.226Z,8.07
2019-01-19T12:47:33.307Z,6.60
2019-01-19T12:50:03.991Z,8.03
2019-01-19T12:52:33.903Z,8.43
2019-01-19T12:55:02.604Z,8.93
2019-01-19T12:57:31.036Z,5.93
2019-01-19T12:59:59.318Z,9.30
2019-01-19T13:02:27.553Z,6.03
2019-01-19T13:04:55.352Z,7.85
2019-01-19T13:07:26.950Z,7.45
2019-01-19T13:10:09.013Z,6.35
2019-01-19T13:12:44.101Z,6.85
2019-01-19T13:16:01.983Z,9.05
2019-01-19T13:19:05.979Z,5.50
2019-01-19T13:22:26.818Z,9.30
2019-01-19T13:25:18.977Z,4.97
2019-01-19T13:28:22.870Z,8.20
2019-01-19T13:31:13.204Z,6.27
2019-01-19T13:33:56.712Z,7.13
2019-01-19T13:37:04.991Z,6.47
2019-01-19T13:40:21.991Z,6.83
2019-01-19T13:43:46.709Z,7.23
2019-01-19T13:46:53.812Z,7.80
2019-01-19T13:49:46.238Z,9.25
2019-01-19T13:52:55.722Z,9.80
2019-01-19T13:55:53.498Z,5.37
2019-01-19T13:58:53.025Z,6.42
2019-01-19T14:02:14.287Z,5.50
2019-01-19T14:05:05.952Z,8.85
2019-01-19T14:08:09.252Z,9.68
2019-01-19T14:11:05.871Z,6.25
2019-01-19T14:14:15.866Z,9.10
2019-01-19T14:17:01.498Z,6.13
2019-01-19T14:20:01.992Z,6.20
2019-01-19T14:23:16.419Z,5.53
2019-01-19T14:26:41.585Z,7.63
2019-01-19T14:29:36.756Z,5.57
2019-01-19T14:33:02.589Z,7.97
2019-01-19T14:36:07.126Z,8.03
2019-01-19T14:38:56.882Z,8.20
2019-01-19T14:42:03.715Z,7.07
2019-01-19T14:45:22.357Z,6.07
2019-01-19T14:48:10.808Z,11.13
2019-01-19T14:51:15.353Z,8.30
2019-01-19T14:54:23.777Z,6.93
2019-01-19T14:57:54.867Z,13.27
2019-01-19T15:00:57.915Z,8.87
2019-01-19T15:04:25.699Z,9.27
2019-01-19T15:07:27.829Z,10.37
2019-01-19T15:10:24.983Z,10.07
2019-01-19T15:13:45.185Z,10.87
2019-01-19T15:17:09.912Z,12.97
2019-01-19T15:20:25.465Z,9.43
2019-01-19T15:23:26.511Z,9.80
2019-01-19T15:26:51.736Z,9.53
2019-01-19T15:30:01.593Z,10.47
2019-01-19T15:33:20.960Z,12.40
2019-01-19T15:36:32.881Z,9.37
2019-01-19T15:39:29.388Z,10.57
2019-01-19T15:42:34.800Z,11.47
2019-01-19T15:45:56.398Z,13.20
2019-01-19T15:48:47.543Z,13.60
2019-01-19T15:52:05.151Z,11.20
2019-01-19T15:55:08.885Z,12.20
2019-01-19T15:57:46.746Z,12.17
2019-01-19T16:00:57.508Z,14.13
2019-01-19T16:03:46.620Z,13.33
2019-01-19T16:06:31.959Z,13.03
2019-01-19T16:09:37.696Z,17.23
2019-01-19T16:12:46.237Z,13.47
2019-01-19T16:16:07.493Z,12.83
2019-01-19T16:19:10.802Z,17.07
2019-01-19T16:22:22.210Z,15.73
2019-01-19T16:25:19.595Z,20.97
2019-01-19T16:28:42.462Z,15.33
2019-01-19T16:32:07.972Z,14.37
2019-01-19T16:35:01.191Z,14.13
2019-01-19T16:38:04.551Z,18.33
2019-01-19T16:41:25.968Z,13.43
2019-01-19T16:44:31.901Z,13.20
2019-01-19T16:47:21.018Z,14.87
2019-01-19T16:50:29.251Z,19.17
2019-01-19T16:53:24.279Z,15.23
2019-01-19T16:56:05.072Z,14.13
2019-01-19T16:59:09.486Z,14.00
2019-01-19T17:02:23.566Z,14.17
2019-01-19T17:05:20.449Z,16.53
2019-01-19T17:08:18.630Z,16.10
2019-01-19T17:11:31.401Z,17.33
2019-01-19T17:14:27.793Z,37.03
2019-01-19T17:17:20.200Z,29.97
2019-01-19T17:20:23.818Z,33.07
2019-01-19T17:23:38.171Z,34.30
2019-01-19T17:26:44.054Z,35.10
2019-01-19T17:29:39.046Z,26.40
2019-01-19T17:32:29.822Z,29.37
2019-01-19T17:35:23.104Z,29.23
2019-01-19T17:38:04.509Z,43.13
2019-01-19T17:41:16.448Z,36.03
2019-01-19T17:44:01.402Z,26.30
2019-01-19T17:46:58.742Z,23.97
2019-01-19T17:49:57.678Z,33.07
2019-01-19T17:52:56.703Z,26.13
2019-01-19T17:55:47.957Z,29.17
2019-01-19T17:59:00.147Z,28.87
2019-01-19T18:01:49.069Z,30.03
2019-01-19T18:04:47.635Z,36.37
2019-01-19T18:07:53.546Z,30.43
2019-01-19T18:10:54.125Z,30.33
2019-01-19T18:13:39.943Z,33.47
2019-01-19T18:16:52.136Z,31.57
2019-01-19T18:20:05.395Z,31.83
2019-01-19T18:23:18.520Z,31.80
2019-01-19T18:26:19.162Z,33.07
2019-01-19T18:29:11.176Z,37.60
2019-01-19T18:31:56.533Z,31.13
2019-01-19T18:35:07.937Z,30.50
2019-01-19T18:38:08.559Z,36.47
2019-01-19T18:40:57.419Z,26.87
2019-01-19T18:43:44.557Z,34.97
2019-01-19T18:47:08.988Z,31.00
2019-01-19T18:50:18.923Z,34.80
2019-01-19T18:53:14.742Z,38.33
2019-01-19T18:56:04.393Z,30.40
2019-01-19T18:59:00.815Z,28.73
2019-01-19T19:01:55.668Z,24.67
2019-01-19T19:04:58.750Z,28.23
2019-01-19T19:08:17.916Z,27.83
2019-01-19T19:11:42.509Z,28.77
2019-01-19T19:15:00.631Z,29.53
2019-01-19T19:18:06.315Z,35.80
2019-01-19T19:21:17.341Z,27.33
2019-01-19T19:24:25.143Z,32.03
2019-01-19T19:27:23.714Z,47.23
2019-01-19T19:30:37.254Z,41.63
2019-01-19T19:33:33.218Z,44.10
2019-01-19T19:36:41.378Z,42.47
2019-01-19T19:40:00.819Z,57.07
2019-01-19T19:42:47.450Z,54.80
2019-01-19T19:45:59.685Z,46.37
2019-01-19T19:49:05.257Z,46.23
2019-01-19T19:51:59.304Z,48.07
2019-01-19T19:54:29.504Z,43.43
2019-01-19T19:57:26.387Z,44.07
2019-01-19T19:59:59.124Z,39.77
2019-01-19T20:02:28.085Z,41.07
2019-01-19T20:04:55.697Z,44.53
2019-01-19T20:07:24.151Z,37.73
2019-01-19T20:09:52.355Z,45.27
2019-01-19T20:12:20.724Z,46.47
2019-01-19T20:14:48.319Z,47.27
2019-01-19T20:17:29.994Z,44.57
2019-01-19T20:19:57.988Z,36.10
2019-01-19T20:22:26.419Z,40.17
2019-01-19T20:25:49.245Z,40.03
2019-01-19T20:28:30.430Z,42.80
2019-01-19T20:31:06.799Z,49.53
2019-01-19T20:33:34.668Z,46.30
2019-01-19T20:36:10.424Z,41.30
2019-01-19T20:38:42.577Z,44.57
2019-01-19T20:41:10.121Z,41.17
2019-01-19T20:43:38.203Z,41.23
2019-01-19T20:46:06.011Z,39.63
2019-01-19T20:48:50.233Z,37.50
2019-01-19T20:51:31.898Z,40.37
2019-01-19T20:54:26.622Z,35.00
2019-01-19T20:57:12.762Z,31.93
2019-01-19T20:59:48.023Z,38.77
2019-01-19T21:02:15.524Z,39.17
2019-01-19T21:04:43.608Z,38.30
2019-01-19T21:07:11.131Z,41.73
2019-01-19T21:09:38.702Z,43.93
2019-01-19T21:12:53.093Z,36.97
2019-01-19T21:15:25.118Z,43.37
2019-01-19T21:17:59.608Z,38.17
2019-01-19T21:20:27.475Z,38.73
2019-01-19T21:23:19.731Z,40.57
2019-01-19T21:26:03.385Z,39.70
2019-01-19T21:32:20.081Z,48.17
2019-01-19T21:34:47.902Z,32.93
2019-01-19T21:37:20.892Z,37.77
2019-01-19T21:39:55.408Z,42.77
2019-01-19T21:43:15.717Z,33.37
2019-01-19T21:45:43.763Z,34.93
2019-01-19T21:48:11.861Z,46.43
2019-01-19T21:50:40.074Z,34.87
2019-01-19T21:53:08.493Z,39.20
2019-01-19T21:55:36.164Z,32.00
2019-01-19T21:58:12.546Z,43.90
2019-01-19T22:00:40.529Z,42.73
2019-01-19T22:03:08.961Z,48.50
2019-01-19T22:05:37.962Z,38.50
2019-01-19T22:08:17.302Z,37.07
2019-01-19T22:10:47.512Z,41.47
2019-01-19T22:13:15.282Z,53.90
2019-01-19T22:15:53.204Z,39.13
2019-01-19T22:18:27.986Z,47.80
2019-01-19T22:25:31.536Z,42.13
2019-01-19T22:28:10.020Z,34.97
2019-01-19T22:30:45.206Z,42.57
2019-01-19T22:33:16.083Z,40.60
2019-01-19T22:35:44.203Z,40.63
2019-01-19T22:38:11.782Z,45.07
2019-01-19T22:40:41.128Z,39.40
2019-01-19T22:43:12.720Z,35.57
2019-01-19T22:45:41.184Z,39.47
2019-01-19T22:48:40.443Z,40.20
2019-01-19T22:51:34.101Z,42.93
2019-01-19T22:54:01.973Z,37.30
2019-01-19T22:56:29.899Z,39.10
2019-01-19T22:59:03.954Z,38.63
2019-01-19T23:05:44.801Z,40.43
2019-01-19T23:08:12.538Z,38.47
2019-01-19T23:10:40.606Z,48.20
2019-01-19T23:13:45.960Z,52.87
2019-01-19T23:23:11.353Z,44.73
2019-01-19T23:29:49.888Z,46.43
2019-01-19T23:32:29.861Z,46.90
2019-01-19T23:35:20.430Z,51.87
2019-01-19T23:38:19.325Z,51.37
2019-01-19T23:40:55.941Z,50.77
2019-01-19T23:43:33.602Z,54.20
2019-01-19T23:46:01.167Z,53.47
2019-01-19T23:49:26.763Z,56.17
2019-01-19T23:51:54.940Z,46.70
